Time;durP1;ratioP1;P1;durP2;ratioP2;P2;SDS_P1;SDS_P2;PMS_P1;PMS_P2;Temp;Humidity;BMP_temperature;BMP_pressure;BME280_temperature;BME280_humidity;BME280_pressure;Samples;Min_cycle;Max_cycle;Signal;HPM_P1;HPM_P2
2023/01/28 00:02:27;;;;;;;;;;;17.90;33.90;;;;;;8363346;28;19944;-45
2023/01/28 00:06:27;;;;;;;;;;;17.90;34.00;;;;;;8362412;28;19921;-44
2023/01/28 00:10:27;;;;;;;;;;;17.80;34.00;;;;;;8362820;28;20278;-44
2023/01/28 00:14:28;;;;;;;;;;;17.80;34.00;;;;;;8362637;28;20479;-44
2023/01/28 00:18:29;;;;;;;;;;;17.80;34.10;;;;;;8362242;28;19962;-44
2023/01/28 00:22:30;;;;;;;;;;;17.80;34.10;;;;;;8362853;28;20366;-44
2023/01/28 00:26:31;;;;;;;;;;;17.80;34.00;;;;;;8362177;28;19917;-43
2023/01/28 00:30:31;;;;;;;;;;;17.70;34.00;;;;;;8362581;28;19923;-44
2023/01/28 00:34:31;;;;;;;;;;;17.70;34.00;;;;;;8362129;28;19928;-46
2023/01/28 00:38:32;;;;;;;;;;;17.70;34.10;;;;;;8362028;28;19917;-43
2023/01/28 00:42:33;;;;;;;;;;;17.70;34.10;;;;;;8362720;28;19928;-44
2023/01/28 00:46:33;;;;;;;;;;;17.70;34.10;;;;;;8362434;28;19921;-44
2023/01/28 00:50:34;;;;;;;;;;;17.70;34.10;;;;;;8362988;28;19913;-43
2023/01/28 00:54:35;;;;;;;;;;;17.70;34.20;;;;;;8366190;28;19931;-43
2023/01/28 00:58:35;;;;;;;;;;;17.70;34.10;;;;;;8368649;28;19917;-44
2023/01/28 01:02:36;;;;;;;;;;;17.70;34.10;;;;;;8367933;28;19913;-44
2023/01/28 01:06:38;;;;;;;;;;;17.70;34.10;;;;;;8367969;28;20054;-44
2023/01/28 01:10:38;;;;;;;;;;;17.60;34.10;;;;;;8367945;28;19979;-43
2023/01/28 01:14:39;;;;;;;;;;;17.70;34.10;;;;;;8367279;28;19924;-45
2023/01/28 01:18:40;;;;;;;;;;;17.60;34.10;;;;;;8367686;28;19932;-44
2023/01/28 01:22:41;;;;;;;;;;;17.60;34.00;;;;;;8367959;28;19948;-44
2023/01/28 01:26:41;;;;;;;;;;;17.60;34.10;;;;;;8366982;28;19924;-43
2023/01/28 01:30:42;;;;;;;;;;;17.60;34.10;;;;;;8367451;28;19955;-44
2023/01/28 01:34:42;;;;;;;;;;;17.50;34.10;;;;;;8367044;28;19947;-45
2023/01/28 01:38:42;;;;;;;;;;;17.50;34.10;;;;;;8366686;28;20559;-44
2023/01/28 01:42:43;;;;;;;;;;;17.50;34.10;;;;;;8367156;28;19987;-44
2023/01/28 01:46:49;;;;;;;;;;;17.50;34.10;;;;;;8367165;28;20007;-45
2023/01/28 01:50:55;;;;;;;;;;;17.50;34.10;;;;;;8366541;28;19971;-45
2023/01/28 01:54:58;;;;;;;;;;;17.50;34.10;;;;;;8366637;28;20384;-45
2023/01/28 01:58:59;;;;;;;;;;;17.40;34.00;;;;;;8366416;28;20325;-44
2023/01/28 02:03:00;;;;;;;;;;;17.50;34.10;;;;;;8347460;28;19921;-45
2023/01/28 02:07:00;;;;;;;;;;;17.50;34.10;;;;;;8360941;28;20388;-44
2023/01/28 02:11:03;;;;;;;;;;;17.40;34.10;;;;;;8366043;28;19927;-45
2023/01/28 02:15:06;;;;;;;;;;;17.40;34.10;;;;;;8365477;28;19923;-44
2023/01/28 02:19:06;;;;;;;;;;;17.40;34.60;;;;;;8365864;28;19924;-44
2023/01/28 02:23:25;;;;;;;;;;;17.40;34.10;;;;;;8365781;28;19916;-44
2023/01/28 02:27:29;;;;;;;;;;;17.40;34.10;;;;;;8365079;28;19917;-44
2023/01/28 02:31:40;;;;;;;;;;;17.30;34.10;;;;;;8365207;28;19991;-44
2023/01/28 02:35:48;;;;;;;;;;;17.40;34.20;;;;;;8364837;28;19944;-44
2023/01/28 02:39:56;;;;;;;;;;;17.30;34.10;;;;;;8365082;28;20002;-44
2023/01/28 02:43:56;;;;;;;;;;;17.30;34.10;;;;;;8364949;28;20335;-42
2023/01/28 02:47:56;;;;;;;;;;;17.30;34.10;;;;;;8364570;28;19924;-45
2023/01/28 02:52:03;;;;;;;;;;;17.30;34.10;;;;;;8364922;28;19925;-44
2023/01/28 02:56:28;;;;;;;;;;;17.30;34.20;;;;;;8364668;28;20401;-44
2023/01/28 03:00:49;;;;;;;;;;;17.30;34.10;;;;;;8364138;28;20282;-44
2023/01/28 03:05:02;;;;;;;;;;;17.30;34.10;;;;;;8364251;28;19917;-44
2023/01/28 03:09:23;;;;;;;;;;;17.20;34.10;;;;;;8363999;28;20282;-43
2023/01/28 03:39:37;;;;;;;;;;;17.20;34.30;;;;;;8363213;28;19972;-45
2023/01/28 03:43:38;;;;;;;;;;;17.20;34.20;;;;;;8363815;28;19952;-43
2023/01/28 03:47:39;;;;;;;;;;;17.10;34.20;;;;;;8362719;28;19917;-44
2023/01/28 03:51:40;;;;;;;;;;;17.10;34.20;;;;;;8363248;28;19929;-44
2023/01/28 03:55:41;;;;;;;;;;;17.10;34.20;;;;;;8363217;28;19971;-44
2023/01/28 03:59:41;;;;;;;;;;;17.10;34.30;;;;;;8362654;28;20305;-44
2023/01/28 04:03:42;;;;;;;;;;;17.10;34.20;;;;;;8363274;28;20007;-44
2023/01/28 04:07:42;;;;;;;;;;;17.10;34.30;;;;;;8363074;28;20374;-45
2023/01/28 04:11:43;;;;;;;;;;;17.10;34.30;;;;;;8362430;28;19932;-44
2023/01/28 04:15:44;;;;;;;;;;;17.10;34.30;;;;;;8362912;28;19965;-45
2023/01/28 04:19:44;;;;;;;;;;;17.10;34.30;;;;;;8362952;28;19912;-45
2023/01/28 04:23:45;;;;;;;;;;;17.10;34.80;;;;;;8362670;28;19940;-44
2023/01/28 04:27:45;;;;;;;;;;;17.00;34.20;;;;;;8365185;28;19916;-44
2023/01/28 04:31:45;;;;;;;;;;;17.00;34.20;;;;;;8369166;28;20421;-44
2023/01/28 04:35:46;;;;;;;;;;;17.00;34.20;;;;;;8368712;28;19921;-45
2023/01/28 04:39:46;;;;;;;;;;;17.10;34.20;;;;;;8369245;28;19970;-44
2023/01/28 04:43:48;;;;;;;;;;;17.00;34.10;;;;;;8369607;28;19913;-44
2023/01/28 04:47:48;;;;;;;;;;;17.00;34.20;;;;;;8368488;28;19956;-44
2023/01/28 04:51:49;;;;;;;;;;;17.00;34.20;;;;;;8368787;28;19925;-44
2023/01/28 04:55:49;;;;;;;;;;;17.00;34.20;;;;;;8368362;28;19921;-44
2023/01/28 04:59:50;;;;;;;;;;;17.00;34.20;;;;;;8367826;28;19913;-44
2023/01/28 05:03:50;;;;;;;;;;;17.00;34.20;;;;;;8350804;28;19983;-45
2023/01/28 05:07:52;;;;;;;;;;;17.00;34.20;;;;;;8360005;28;19917;-44
2023/01/28 05:11:54;;;;;;;;;;;17.00;34.20;;;;;;8366737;28;22290;-44
2023/01/28 05:15:54;;;;;;;;;;;17.10;34.30;;;;;;8367927;28;19917;-45
2023/01/28 05:19:55;;;;;;;;;;;17.10;34.20;;;;;;8367931;28;20294;-45
2023/01/28 05:23:55;;;;;;;;;;;17.20;34.20;;;;;;8367167;28;19923;-45
2023/01/28 05:27:55;;;;;;;;;;;17.30;34.10;;;;;;8367620;28;19923;-43
2023/01/28 05:31:56;;;;;;;;;;;17.40;34.00;;;;;;8367401;28;19954;-45
2023/01/28 05:35:56;;;;;;;;;;;17.50;33.90;;;;;;8366772;28;19924;-45
2023/01/28 05:39:57;;;;;;;;;;;17.60;34.00;;;;;;8366974;28;20290;-44
2023/01/28 05:43:57;;;;;;;;;;;17.60;33.80;;;;;;8366916;28;19917;-45
2023/01/28 05:47:58;;;;;;;;;;;17.70;33.80;;;;;;8366550;28;19924;-44
2023/01/28 05:52:00;;;;;;;;;;;17.70;33.80;;;;;;8366700;28;19932;-44
2023/01/28 05:56:00;;;;;;;;;;;17.80;33.80;;;;;;8366723;28;19943;-44
2023/01/28 06:00:01;;;;;;;;;;;17.80;33.70;;;;;;8366241;28;19956;-44
2023/01/28 06:04:01;;;;;;;;;;;17.80;33.70;;;;;;8366759;28;20320;-43
2023/01/28 06:08:02;;;;;;;;;;;17.80;33.70;;;;;;8366447;28;19923;-44
2023/01/28 06:12:03;;;;;;;;;;;17.90;33.70;;;;;;8365623;28;19925;-46
2023/01/28 06:16:03;;;;;;;;;;;17.90;33.70;;;;;;8366144;28;20436;-46
2023/01/28 06:20:04;;;;;;;;;;;17.90;33.70;;;;;;8366148;28;19928;-45
2023/01/28 06:24:04;;;;;;;;;;;18.00;33.60;;;;;;8365156;28;20015;-45
2023/01/28 06:28:05;;;;;;;;;;;18.00;33.70;;;;;;8365956;28;19970;-46
2023/01/28 06:32:05;;;;;;;;;;;18.10;33.60;;;;;;8365568;28;19963;-44
2023/01/28 06:36:06;;;;;;;;;;;18.10;33.60;;;;;;8365094;28;19917;-46
2023/01/28 06:40:07;;;;;;;;;;;18.10;33.60;;;;;;8365718;28;19913;-45
2023/01/28 06:44:07;;;;;;;;;;;18.10;33.50;;;;;;8365011;28;20290;-46
2023/01/28 06:48:08;;;;;;;;;;;18.20;33.60;;;;;;8364517;28;20340;-47
2023/01/28 06:52:08;;;;;;;;;;;18.20;33.60;;;;;;8363955;28;19932;-45
2023/01/28 06:56:09;;;;;;;;;;;18.20;33.60;;;;;;8364950;28;20020;-46
2023/01/28 07:00:10;;;;;;;;;;;18.20;33.60;;;;;;8364402;28;19912;-46
2023/01/28 07:04:10;;;;;;;;;;;18.20;33.50;;;;;;8364769;28;20289;-45
2023/01/28 07:08:11;;;;;;;;;;;18.30;33.50;;;;;;8364436;28;19947;-45
2023/01/28 07:12:11;;;;;;;;;;;18.30;33.50;;;;;;8363768;28;19924;-44
2023/01/28 07:16:12;;;;;;;;;;;18.40;33.40;;;;;;8364200;28;20297;-44
2023/01/28 07:20:14;;;;;;;;;;;18.40;33.40;;;;;;8363281;28;20007;-45
2023/01/28 07:24:14;;;;;;;;;;;18.40;33.30;;;;;;8363411;28;19927;-45
2023/01/28 07:28:20;;;;;;;;;;;18.40;33.40;;;;;;8363845;28;19924;-45
2023/01/28 07:32:20;;;;;;;;;;;18.40;33.40;;;;;;8363716;28;19924;-45
2023/01/28 07:36:21;;;;;;;;;;;18.40;33.40;;;;;;8363174;28;19924;-48
2023/01/28 07:40:22;;;;;;;;;;;18.50;33.40;;;;;;8363902;28;19959;-45
2023/01/28 07:44:22;;;;;;;;;;;18.50;33.40;;;;;;8363490;28;19917;-45
2023/01/28 07:48:23;;;;;;;;;;;18.50;33.40;;;;;;8362931;28;19996;-45
2023/01/28 07:52:23;;;;;;;;;;;18.50;33.30;;;;;;8363116;28;19986;-45
2023/01/28 07:56:26;;;;;;;;;;;18.50;33.30;;;;;;8363337;28;19994;-45
2023/01/28 08:00:27;;;;;;;;;;;18.50;33.30;;;;;;8362762;28;19917;-46
2023/01/28 08:04:27;;;;;;;;;;;18.60;33.30;;;;;;8343046;28;19998;-47
2023/01/28 08:08:28;;;;;;;;;;;18.60;33.30;;;;;;8349870;28;19920;-45
2023/01/28 08:12:28;;;;;;;;;;;18.60;33.30;;;;;;8362364;28;19956;-46
2023/01/28 08:16:29;;;;;;;;;;;18.60;33.30;;;;;;8362928;28;19924;-45
2023/01/28 08:20:29;;;;;;;;;;;18.60;33.30;;;;;;8363248;28;19920;-46
2023/01/28 08:24:30;;;;;;;;;;;18.70;33.30;;;;;;8362543;28;20436;-47
2023/01/28 08:28:30;;;;;;;;;;;18.70;33.30;;;;;;8362608;28;20286;-45
2023/01/28 08:32:31;;;;;;;;;;;18.70;33.20;;;;;;8362068;28;20297;-44
2023/01/28 08:36:31;;;;;;;;;;;18.70;33.20;;;;;;8362405;28;19971;-45
2023/01/28 08:40:32;;;;;;;;;;;18.70;33.10;;;;;;8362774;28;19968;-47
2023/01/28 08:44:33;;;;;;;;;;;18.80;33.20;;;;;;8361820;28;19924;-44
2023/01/28 08:48:33;;;;;;;;;;;18.80;33.20;;;;;;8362127;28;20145;-46
2023/01/28 08:52:34;;;;;;;;;;;18.80;33.20;;;;;;8362283;28;19932;-45
2023/01/28 08:56:34;;;;;;;;;;;18.80;33.70;;;;;;8362211;28;19925;-48
2023/01/28 09:00:35;;;;;;;;;;;18.80;33.10;;;;;;8362618;28;20003;-45
2023/01/28 09:04:35;;;;;;;;;;;18.80;33.10;;;;;;8362075;28;20007;-45
2023/01/28 09:08:36;;;;;;;;;;;18.80;33.10;;;;;;8361691;28;19913;-46
2023/01/28 09:12:36;;;;;;;;;;;18.90;33.10;;;;;;8362205;28;19970;-44
2023/01/28 09:16:37;;;;;;;;;;;18.90;33.20;;;;;;8367193;28;19913;-45
2023/01/28 09:20:37;;;;;;;;;;;18.90;33.10;;;;;;8368319;28;19917;-45
2023/01/28 09:24:38;;;;;;;;;;;18.90;33.10;;;;;;8367694;28;19995;-46
2023/01/28 09:28:39;;;;;;;;;;;18.90;33.10;;;;;;8367870;28;19928;-46
2023/01/28 09:32:39;;;;;;;;;;;18.90;33.10;;;;;;8367010;28;20015;-46
2023/01/28 09:36:39;;;;;;;;;;;18.90;33.00;;;;;;8367816;28;19913;-46
2023/01/28 09:40:42;;;;;;;;;;;18.90;33.00;;;;;;8334670;28;19924;-47
2023/01/28 09:45:02;;;;;;;;;;;19.00;33.00;;;;;;8358720;28;19917;-47
2023/01/28 09:49:13;;;;;;;;;;;19.00;33.00;;;;;;8367403;28;19917;-47
2023/01/28 09:53:20;;;;;;;;;;;19.00;33.00;;;;;;8366933;28;20302;-46
2023/01/28 09:57:25;;;;;;;;;;;19.00;33.00;;;;;;8366698;28;19944;-49
2023/01/28 10:01:34;;;;;;;;;;;19.00;33.00;;;;;;8366928;28;20366;-45
2023/01/28 10:05:43;;;;;;;;;;;19.10;33.00;;;;;;8366276;28;20007;-46
2023/01/28 10:09:56;;;;;;;;;;;19.10;33.00;;;;;;8366429;28;19917;-47
2023/01/28 10:14:11;;;;;;;;;;;19.10;33.00;;;;;;8366089;28;19951;-45
2023/01/28 10:18:12;;;;;;;;;;;19.10;33.00;;;;;;8365742;28;19917;-46
2023/01/28 10:22:17;;;;;;;;;;;19.10;32.90;;;;;;8366108;28;19920;-48
2023/01/28 10:26:22;;;;;;;;;;;19.10;32.90;;;;;;8364686;28;19913;-46
2023/01/28 10:30:24;;;;;;;;;;;19.10;32.90;;;;;;8365307;28;19923;-46
2023/01/28 10:34:24;;;;;;;;;;;19.20;32.90;;;;;;8365618;28;19929;-46
2023/01/28 10:38:25;;;;;;;;;;;19.20;32.90;;;;;;8365405;28;20004;-46
2023/01/28 10:42:30;;;;;;;;;;;19.20;32.80;;;;;;8364696;28;20503;-44
2023/01/28 10:46:32;;;;;;;;;;;19.20;32.90;;;;;;8365763;28;20262;-46
2023/01/28 10:50:34;;;;;;;;;;;19.20;32.80;;;;;;8364989;28;20263;-45
2023/01/28 10:54:34;;;;;;;;;;;19.20;32.80;;;;;;8364766;28;19929;-46
2023/01/28 10:58:45;;;;;;;;;;;19.20;32.80;;;;;;8364945;28;19962;-45
2023/01/28 11:02:47;;;;;;;;;;;19.30;32.80;;;;;;8364239;28;19948;-47
2023/01/28 11:06:51;;;;;;;;;;;19.30;32.80;;;;;;8364774;28;19913;-46
2023/01/28 11:10:52;;;;;;;;;;;19.30;32.80;;;;;;8355066;28;20286;-47
2023/01/28 11:14:54;;;;;;;;;;;19.30;32.70;;;;;;8345975;28;20409;-47
2023/01/28 11:19:01;;;;;;;;;;;19.30;32.70;;;;;;8362905;28;19921;-46
2023/01/28 11:23:01;;;;;;;;;;;19.30;32.70;;;;;;8364204;28;19967;-46
2023/01/28 11:27:10;;;;;;;;;;;19.30;32.70;;;;;;8363687;28;19913;-46
2023/01/28 11:31:13;;;;;;;;;;;19.30;32.70;;;;;;8363905;28;20322;-46
2023/01/28 11:35:22;;;;;;;;;;;19.30;32.70;;;;;;8363487;28;19917;-46
2023/01/28 11:39:27;;;;;;;;;;;19.30;32.70;;;;;;8361170;28;20003;-46
2023/01/28 11:43:29;;;;;;;;;;;19.30;32.70;;;;;;8363537;28;19917;-46
2023/01/28 11:47:32;;;;;;;;;;;19.40;32.80;;;;;;8363834;28;19913;-46
2023/01/28 11:51:42;;;;;;;;;;;19.40;32.70;;;;;;8363149;28;19925;-45
2023/01/28 11:55:45;;;;;;;;;;;19.40;32.70;;;;;;8363349;28;19927;-46
2023/01/28 12:00:05;;;;;;;;;;;19.40;32.70;;;;;;8362631;28;19924;-46
2023/01/28 12:04:06;;;;;;;;;;;19.40;32.70;;;;;;8363182;28;19917;-47
2023/01/28 12:08:12;;;;;;;;;;;19.40;32.60;;;;;;8362931;28;19916;-44
2023/01/28 12:12:21;;;;;;;;;;;19.40;33.10;;;;;;8362628;28;19946;-45
2023/01/28 12:16:26;;;;;;;;;;;19.50;32.50;;;;;;8362784;28;19917;-46
2023/01/28 12:20:37;;;;;;;;;;;19.50;32.50;;;;;;8362846;28;20340;-46
2023/01/28 12:24:45;;;;;;;;;;;19.50;32.60;;;;;;8362593;28;19935;-48
2023/01/28 12:28:45;;;;;;;;;;;19.50;32.50;;;;;;8362639;28;19917;-46
2023/01/28 12:32:53;;;;;;;;;;;19.50;32.60;;;;;;8362176;28;20297;-46
2023/01/28 12:37:00;;;;;;;;;;;19.50;32.50;;;;;;8362778;28;20003;-46
2023/01/28 12:41:08;;;;;;;;;;;19.50;32.60;;;;;;8362600;28;19917;-47
2023/01/28 12:45:26;;;;;;;;;;;19.60;32.60;;;;;;8362111;28;19927;-46
2023/01/28 12:49:29;;;;;;;;;;;19.60;32.50;;;;;;8365942;28;19917;-46
2023/01/28 12:53:32;;;;;;;;;;;19.60;32.50;;;;;;8368793;28;19925;-46
2023/01/28 12:57:34;;;;;;;;;;;19.60;32.50;;;;;;8368766;28;19920;-47
2023/01/28 13:01:34;;;;;;;;;;;19.60;32.50;;;;;;8368748;28;19924;-46
2023/01/28 13:05:37;;;;;;;;;;;19.60;32.50;;;;;;8368060;28;19917;-45
2023/01/28 13:09:42;;;;;;;;;;;19.60;32.50;;;;;;8368162;28;20004;-46
2023/01/28 13:13:44;;;;;;;;;;;19.60;32.50;;;;;;8368219;28;19967;-45
2023/01/28 13:17:57;;;;;;;;;;;19.60;32.50;;;;;;8367884;28;19932;-46
2023/01/28 13:22:08;;;;;;;;;;;19.60;32.50;;;;;;8368189;28;19916;-46
2023/01/28 13:26:17;;;;;;;;;;;19.60;32.60;;;;;;8367841;28;19921;-46
2023/01/28 13:30:23;;;;;;;;;;;19.60;32.50;;;;;;8367183;28;20437;-46
2023/01/28 13:34:34;;;;;;;;;;;19.60;32.50;;;;;;8367525;28;19924;-46
2023/01/28 13:38:35;;;;;;;;;;;19.60;32.50;;;;;;8366974;28;20366;-45
2023/01/28 13:42:35;;;;;;;;;;;19.70;32.70;;;;;;8367799;28;19920;-47
2023/01/28 13:46:38;;;;;;;;;;;19.60;32.60;;;;;;8367157;28;19970;-46
2023/01/28 13:50:40;;;;;;;;;;;19.60;32.50;;;;;;8366601;28;19917;-46
2023/01/28 13:54:52;;;;;;;;;;;19.70;32.60;;;;;;8366531;28;20337;-46
2023/01/28 13:59:01;;;;;;;;;;;19.70;32.50;;;;;;8366594;28;19963;-45
2023/01/28 14:03:20;;;;;;;;;;;19.70;32.50;;;;;;8365872;28;19917;-46
2023/01/28 14:07:39;;;;;;;;;;;19.70;32.50;;;;;;8345135;28;19924;-45
2023/01/28 14:11:46;;;;;;;;;;;19.70;32.50;;;;;;8359373;28;19925;-46
2023/01/28 14:16:11;;;;;;;;;;;19.70;32.40;;;;;;8366601;28;19924;-46
2023/01/28 14:20:19;;;;;;;;;;;19.70;32.30;;;;;;8365999;28;19970;-46
2023/01/28 14:24:19;;;;;;;;;;;19.70;32.30;;;;;;8365504;28;19917;-46
2023/01/28 14:28:29;;;;;;;;;;;19.70;32.80;;;;;;8366094;28;19913;-44
2023/01/28 14:32:30;;;;;;;;;;;19.80;32.30;;;;;;8365737;28;20378;-46
2023/01/28 14:36:34;;;;;;;;;;;19.80;32.30;;;;;;8365287;28;19970;-44
2023/01/28 14:40:38;;;;;;;;;;;19.80;32.30;;;;;;8365560;28;20341;-46
2023/01/28 14:44:39;;;;;;;;;;;19.80;32.30;;;;;;8364914;28;19923;-46
2023/01/28 14:48:55;;;;;;;;;;;19.80;32.40;;;;;;8365670;28;19924;-46
2023/01/28 14:53:11;;;;;;;;;;;19.80;32.40;;;;;;8365201;28;19932;-45
2023/01/28 14:57:22;;;;;;;;;;;19.80;32.20;;;;;;8364906;28;19921;-45
2023/01/28 15:01:24;;;;;;;;;;;19.70;32.30;;;;;;8365003;28;19963;-47
2023/01/28 15:05:26;;;;;;;;;;;19.80;32.20;;;;;;8364694;28;19962;-45
2023/01/28 15:09:26;;;;;;;;;;;19.80;32.20;;;;;;8363889;28;19939;-45
2023/01/28 15:13:28;;;;;;;;;;;19.80;32.30;;;;;;8363793;28;20015;-45
2023/01/28 15:17:28;;;;;;;;;;;19.80;32.20;;;;;;8364211;28;19921;-44
2023/01/28 15:21:29;;;;;;;;;;;19.80;32.30;;;;;;8363628;28;19946;-46
2023/01/28 15:25:29;;;;;;;;;;;19.80;32.30;;;;;;8364266;28;20028;-46
2023/01/28 15:29:32;;;;;;;;;;;19.80;32.20;;;;;;8363488;28;19924;-44
2023/01/28 15:33:32;;;;;;;;;;;19.80;32.20;;;;;;8363795;28;19924;-45
2023/01/28 15:37:32;;;;;;;;;;;19.80;32.20;;;;;;8363812;28;20556;-46
2023/01/28 15:41:36;;;;;;;;;;;19.80;32.20;;;;;;8363081;28;20392;-46
2023/01/28 15:45:36;;;;;;;;;;;19.80;32.20;;;;;;8363439;28;19917;-47
2023/01/28 15:49:41;;;;;;;;;;;19.80;32.20;;;;;;8363288;28;20409;-47
2023/01/28 15:53:43;;;;;;;;;;;19.80;32.20;;;;;;8363064;28;19921;-47
2023/01/28 15:57:43;;;;;;;;;;;19.80;32.20;;;;;;8363563;28;20413;-45
2023/01/28 16:01:43;;;;;;;;;;;19.90;32.20;;;;;;8363143;28;19923;-46
2023/01/28 16:05:53;;;;;;;;;;;19.80;32.20;;;;;;8362557;28;19963;-47
2023/01/28 16:09:55;;;;;;;;;;;19.80;32.20;;;;;;8362978;28;19913;-45
2023/01/28 16:13:56;;;;;;;;;;;19.80;32.20;;;;;;8363198;28;19929;-45
2023/01/28 16:17:56;;;;;;;;;;;19.90;32.20;;;;;;8362328;28;19920;-47
2023/01/28 16:21:57;;;;;;;;;;;19.90;32.20;;;;;;8362626;28;19920;-46
2023/01/28 16:26:05;;;;;;;;;;;19.90;32.20;;;;;;8368949;28;19955;-46
2023/01/28 16:30:05;;;;;;;;;;;19.90;32.20;;;;;;8369041;28;19952;-46
2023/01/28 16:34:07;;;;;;;;;;;19.90;32.20;;;;;;8369479;28;19921;-47
2023/01/28 16:38:08;;;;;;;;;;;19.90;32.20;;;;;;8369148;28;19920;-45
2023/01/28 16:42:08;;;;;;;;;;;19.90;32.20;;;;;;8368562;28;20389;-45
2023/01/28 16:46:10;;;;;;;;;;;19.90;32.20;;;;;;8369209;28;19913;-46
2023/01/28 16:50:11;;;;;;;;;;;19.90;32.20;;;;;;8368889;28;20503;-46
2023/01/28 16:54:13;;;;;;;;;;;19.90;32.20;;;;;;8368551;28;19921;-45
2023/01/28 16:58:15;;;;;;;;;;;19.90;32.20;;;;;;8368441;28;19974;-45
2023/01/28 17:02:16;;;;;;;;;;;19.90;32.20;;;;;;8368495;28;19986;-46
2023/01/28 17:06:17;;;;;;;;;;;19.90;32.20;;;;;;8367078;28;19920;-46
2023/01/28 17:10:19;;;;;;;;;;;19.90;32.20;;;;;;8368407;28;20372;-46
2023/01/28 17:14:19;;;;;;;;;;;20.00;32.30;;;;;;8368366;28;19964;-45
2023/01/28 17:18:20;;;;;;;;;;;19.90;32.20;;;;;;8367587;28;19924;-46
2023/01/28 17:22:20;;;;;;;;;;;19.90;32.20;;;;;;8368076;28;20338;-46
2023/01/28 17:26:21;;;;;;;;;;;19.90;32.20;;;;;;8367915;28;20255;-46
2023/01/28 17:30:21;;;;;;;;;;;20.00;32.30;;;;;;8367245;28;20270;-46
2023/01/28 17:34:22;;;;;;;;;;;20.00;32.30;;;;;;8365592;28;19996;-46
2023/01/28 17:38:22;;;;;;;;;;;20.00;32.20;;;;;;8367569;28;19917;-47
2023/01/28 17:42:22;;;;;;;;;;;19.90;32.10;;;;;;8332414;28;19924;-45
2023/01/28 17:46:24;;;;;;;;;;;20.00;32.10;;;;;;8346627;28;20405;-47
2023/01/28 17:50:24;;;;;;;;;;;20.00;32.20;;;;;;8367036;28;19960;-47
2023/01/28 17:54:25;;;;;;;;;;;20.00;32.10;;;;;;8366696;28;20297;-46
2023/01/28 17:58:26;;;;;;;;;;;20.00;32.10;;;;;;8366612;28;19920;-46
2023/01/28 18:02:27;;;;;;;;;;;19.90;32.10;;;;;;8366630;28;19919;-44
2023/01/28 18:06:31;;;;;;;;;;;19.90;32.00;;;;;;8366029;28;20330;-46
2023/01/28 18:10:32;;;;;;;;;;;19.90;32.00;;;;;;8366577;28;19917;-46
2023/01/28 18:14:32;;;;;;;;;;;19.90;32.10;;;;;;8366159;28;19932;-46
2023/01/28 18:18:33;;;;;;;;;;;19.90;32.10;;;;;;8366296;28;19996;-46
2023/01/28 18:22:34;;;;;;;;;;;19.90;32.10;;;;;;8366310;28;19917;-46
2023/01/28 18:26:34;;;;;;;;;;;19.90;32.10;;;;;;8365717;28;19999;-45
2023/01/28 18:30:35;;;;;;;;;;;19.90;32.00;;;;;;8366003;28;19917;-45
2023/01/28 18:34:35;;;;;;;;;;;19.90;32.10;;;;;;8366123;28;20308;-44
2023/01/28 18:38:36;;;;;;;;;;;19.90;32.00;;;;;;8365099;28;20019;-46
2023/01/28 18:42:36;;;;;;;;;;;19.90;32.10;;;;;;8365752;28;19924;-46
2023/01/28 18:46:37;;;;;;;;;;;19.90;32.10;;;;;;8365242;28;19912;-46
2023/01/28 18:50:37;;;;;;;;;;;19.90;32.10;;;;;;8364838;28;19916;-45
2023/01/28 18:54:38;;;;;;;;;;;19.90;32.10;;;;;;8365137;28;19921;-45
2023/01/28 18:58:38;;;;;;;;;;;19.90;32.10;;;;;;8364813;28;19967;-46
2023/01/28 19:02:38;;;;;;;;;;;19.90;32.00;;;;;;8364336;28;19917;-46
2023/01/28 19:06:39;;;;;;;;;;;19.90;32.00;;;;;;8364846;28;20285;-45
2023/01/28 19:10:39;;;;;;;;;;;19.90;32.00;;;;;;8364480;28;20481;-46
2023/01/28 19:14:40;;;;;;;;;;;19.90;32.00;;;;;;8364028;28;19925;-45
2023/01/28 19:18:40;;;;;;;;;;;19.90;32.10;;;;;;8364571;28;20007;-48
2023/01/28 19:22:42;;;;;;;;;;;19.90;32.10;;;;;;8364102;28;20002;-45
2023/01/28 19:26:45;;;;;;;;;;;19.90;32.10;;;;;;8363322;28;19956;-45
2023/01/28 19:30:45;;;;;;;;;;;19.90;32.20;;;;;;8363782;28;19916;-45
2023/01/28 19:34:46;;;;;;;;;;;19.90;32.20;;;;;;8363693;28;19925;-46
2023/01/28 19:38:46;;;;;;;;;;;19.90;32.20;;;;;;8362946;28;19920;-45
2023/01/28 19:42:50;;;;;;;;;;;19.90;32.20;;;;;;8363563;28;19940;-45
2023/01/28 19:46:50;;;;;;;;;;;19.90;32.20;;;;;;8363633;28;19917;-45
2023/01/28 19:50:51;;;;;;;;;;;20.00;32.20;;;;;;8363101;28;19920;-46
2023/01/28 19:54:51;;;;;;;;;;;19.90;32.10;;;;;;8363287;28;19921;-45
2023/01/28 19:58:52;;;;;;;;;;;19.90;32.20;;;;;;8362738;28;20282;-45
2023/01/28 20:02:53;;;;;;;;;;;19.90;32.20;;;;;;8361687;28;20424;-46
2023/01/28 20:06:53;;;;;;;;;;;19.90;32.20;;;;;;8363359;28;19924;-46
2023/01/28 20:11:00;;;;;;;;;;;19.90;32.20;;;;;;8363307;28;19928;-45
2023/01/28 20:15:00;;;;;;;;;;;19.90;32.20;;;;;;8362708;28;19975;-45
2023/01/28 20:19:03;;;;;;;;;;;19.90;32.20;;;;;;8363101;28;20278;-45
2023/01/28 20:23:04;;;;;;;;;;;19.90;32.20;;;;;;8362835;28;20225;-46
2023/01/28 20:27:04;;;;;;;;;;;20.00;32.30;;;;;;8362118;28;19924;-46
2023/01/28 20:31:06;;;;;;;;;;;19.90;32.20;;;;;;8362909;28;19918;-46
2023/01/28 20:35:07;;;;;;;;;;;20.00;32.20;;;;;;8362846;28;19921;-46
2023/01/28 20:39:07;;;;;;;;;;;20.00;32.20;;;;;;8362000;28;20003;-45
2023/01/28 20:43:08;;;;;;;;;;;20.00;32.20;;;;;;8362067;28;20015;-47
2023/01/28 20:47:08;;;;;;;;;;;20.00;32.30;;;;;;8362789;28;19916;-46
2023/01/28 20:51:14;;;;;;;;;;;20.00;32.20;;;;;;8362130;28;19913;-45
2023/01/28 20:55:14;;;;;;;;;;;20.00;32.20;;;;;;8362250;28;19964;-46
2023/01/28 20:59:15;;;;;;;;;;;19.90;32.20;;;;;;8360816;28;19932;-45
2023/01/28 21:03:15;;;;;;;;;;;20.00;32.20;;;;;;8361559;28;19920;-46
2023/01/28 21:07:16;;;;;;;;;;;19.90;32.10;;;;;;8362468;28;19917;-46
2023/01/28 21:11:16;;;;;;;;;;;19.90;32.20;;;;;;8365406;28;19913;-46
2023/01/28 21:15:17;;;;;;;;;;;19.90;32.10;;;;;;8367504;28;19925;-45
2023/01/28 21:19:17;;;;;;;;;;;19.90;32.00;;;;;;8368102;28;20289;-45
2023/01/28 21:23:18;;;;;;;;;;;19.90;32.00;;;;;;8368040;28;20362;-45
2023/01/28 21:27:18;;;;;;;;;;;19.80;31.90;;;;;;8367309;28;19916;-44
2023/01/28 21:31:20;;;;;;;;;;;19.80;32.00;;;;;;8368222;28;20008;-45
2023/01/28 21:35:20;;;;;;;;;;;19.80;32.10;;;;;;8367397;28;19925;-45
2023/01/28 21:39:21;;;;;;;;;;;19.70;32.10;;;;;;8366709;28;19971;-45
2023/01/28 21:43:22;;;;;;;;;;;19.70;32.10;;;;;;8367354;28;19917;-46
2023/01/28 21:47:22;;;;;;;;;;;19.60;32.20;;;;;;8367112;28;19924;-46
2023/01/28 21:51:34;;;;;;;;;;;19.60;32.30;;;;;;8366815;28;20259;-45
2023/01/28 21:55:35;;;;;;;;;;;19.50;32.30;;;;;;8367125;28;19971;-46
2023/01/28 21:59:38;;;;;;;;;;;19.40;32.40;;;;;;8366170;28;20417;-45
2023/01/28 22:03:39;;;;;;;;;;;19.40;32.50;;;;;;8366955;28;20388;-45
2023/01/28 22:07:39;;;;;;;;;;;19.40;32.60;;;;;;8366739;28;19920;-45
2023/01/28 22:11:41;;;;;;;;;;;19.30;32.60;;;;;;8366117;28;19920;-45
2023/01/28 22:15:41;;;;;;;;;;;19.30;32.60;;;;;;8366196;28;19960;-45
2023/01/28 22:19:46;;;;;;;;;;;19.30;32.70;;;;;;8366503;28;19928;-45
2023/01/28 22:23:47;;;;;;;;;;;19.20;32.70;;;;;;8364876;28;19917;-46
2023/01/28 22:27:47;;;;;;;;;;;19.20;32.80;;;;;;8365681;28;19917;-45
2023/01/28 22:31:48;;;;;;;;;;;19.10;32.80;;;;;;8366028;28;20320;-45
2023/01/28 22:35:49;;;;;;;;;;;19.10;32.90;;;;;;8365350;28;19917;-46
2023/01/28 22:39:49;;;;;;;;;;;19.00;32.90;;;;;;8365383;28;19917;-44
2023/01/28 22:43:50;;;;;;;;;;;19.00;33.00;;;;;;8365559;28;20269;-44
2023/01/28 22:47:51;;;;;;;;;;;19.00;33.00;;;;;;8364740;28;19925;-45
2023/01/28 22:51:51;;;;;;;;;;;18.90;33.10;;;;;;8365367;28;19920;-45
2023/01/28 22:55:53;;;;;;;;;;;18.90;33.10;;;;;;8365239;28;19962;-45
2023/01/28 22:59:54;;;;;;;;;;;18.90;33.00;;;;;;8364512;28;19994;-45
2023/01/28 23:03:55;;;;;;;;;;;18.90;33.10;;;;;;8363861;28;19916;-44
2023/01/28 23:08:08;;;;;;;;;;;18.80;33.00;;;;;;8363380;28;20302;-44
2023/01/28 23:12:09;;;;;;;;;;;18.80;33.10;;;;;;8364873;28;20428;-44
2023/01/28 23:24:48;;;;;;;;;;;18.70;33.10;;;;;;8362989;28;20042;-45
2023/01/28 23:28:48;;;;;;;;;;;18.60;33.10;;;;;;8364070;28;19917;-45
2023/01/28 23:32:48;;;;;;;;;;;18.60;33.10;;;;;;8362281;28;19970;-45
2023/01/28 23:36:49;;;;;;;;;;;18.60;33.10;;;;;;8364016;28;20370;-45
2023/01/28 23:40:49;;;;;;;;;;;18.60;33.10;;;;;;8363181;28;19924;-44
2023/01/28 23:44:50;;;;;;;;;;;18.50;33.10;;;;;;8363080;28;20378;-44
2023/01/28 23:48:50;;;;;;;;;;;18.50;33.20;;;;;;8363573;28;19916;-44
2023/01/28 23:52:51;;;;;;;;;;;18.50;33.20;;;;;;8363462;28;19931;-44
2023/01/28 23:56:51;;;;;;;;;;;18.40;33.10;;;;;;8363629;28;19936;-44
